sensor_id;sensor_type;location;lat;lon;timestamp;pressure;altitude;pressure_sealevel;temperature;humidity
11830;BME280;5972;42.134;24.718;2022-08-19T00:00:09;99067.44;;;27.76;63.61
11830;BME280;5972;42.134;24.718;2022-08-19T00:02:36;99063.50;;;27.68;64.22
11830;BME280;5972;42.134;24.718;2022-08-19T00:05:04;99063.19;;;27.66;64.45
11830;BME280;5972;42.134;24.718;2022-08-19T00:07:31;99058.25;;;27.61;64.66
11830;BME280;5972;42.134;24.718;2022-08-19T00:09:58;99063.69;;;27.55;65.55
11830;BME280;5972;42.134;24.718;2022-08-19T00:12:26;99064.34;;;27.50;66.32
11830;BME280;5972;42.134;24.718;2022-08-19T00:14:53;99063.72;;;27.46;66.88
11830;BME280;5972;42.134;24.718;2022-08-19T00:17:20;99062.94;;;27.46;66.83
11830;BME280;5972;42.134;24.718;2022-08-19T00:19:47;99068.50;;;27.46;66.76
11830;BME280;5972;42.134;24.718;2022-08-19T00:22:14;99071.00;;;27.35;66.99
11830;BME280;5972;42.134;24.718;2022-08-19T00:24:43;99071.19;;;27.22;67.80
11830;BME280;5972;42.134;24.718;2022-08-19T00:27:11;99071.84;;;27.08;69.26
11830;BME280;5972;42.134;24.718;2022-08-19T00:29:39;99066.44;;;27.13;69.13
11830;BME280;5972;42.134;24.718;2022-08-19T00:32:06;99064.13;;;27.12;70.43
11830;BME280;5972;42.134;24.718;2022-08-19T00:34:33;99041.50;;;26.86;70.67
11830;BME280;5972;42.134;24.718;2022-08-19T00:37:00;99053.69;;;26.79;72.06
11830;BME280;5972;42.134;24.718;2022-08-19T00:39:27;99047.03;;;26.77;72.41
11830;BME280;5972;42.134;24.718;2022-08-19T00:41:54;99051.22;;;26.72;73.07
11830;BME280;5972;42.134;24.718;2022-08-19T00:44:24;99053.81;;;26.76;73.21
11830;BME280;5972;42.134;24.718;2022-08-19T00:46:55;99043.06;;;26.69;73.45
11830;BME280;5972;42.134;24.718;2022-08-19T00:49:26;99025.63;;;26.50;74.09
11830;BME280;5972;42.134;24.718;2022-08-19T00:51:58;99033.03;;;26.44;75.92
11830;BME280;5972;42.134;24.718;2022-08-19T00:54:26;99039.97;;;26.48;76.46
11830;BME280;5972;42.134;24.718;2022-08-19T00:56:53;99041.22;;;26.38;77.70
11830;BME280;5972;42.134;24.718;2022-08-19T00:59:20;99035.34;;;26.27;79.34
11830;BME280;5972;42.134;24.718;2022-08-19T01:01:47;99034.56;;;26.27;79.11
11830;BME280;5972;42.134;24.718;2022-08-19T01:04:16;99029.47;;;26.16;80.79
11830;BME280;5972;42.134;24.718;2022-08-19T01:06:43;99018.22;;;26.11;81.88
11830;BME280;5972;42.134;24.718;2022-08-19T01:09:10;99030.53;;;26.09;81.75
11830;BME280;5972;42.134;24.718;2022-08-19T01:11:40;99027.13;;;26.05;82.59
11830;BME280;5972;42.134;24.718;2022-08-19T01:14:10;99014.06;;;25.97;83.29
11830;BME280;5972;42.134;24.718;2022-08-19T01:16:39;99018.03;;;26.05;83.09
11830;BME280;5972;42.134;24.718;2022-08-19T01:19:10;99027.13;;;26.05;83.11
11830;BME280;5972;42.134;24.718;2022-08-19T01:21:43;99024.69;;;26.07;82.61
11830;BME280;5972;42.134;24.718;2022-08-19T01:24:15;99029.63;;;26.13;81.21
11830;BME280;5972;42.134;24.718;2022-08-19T01:26:43;99028.06;;;26.12;81.05
11830;BME280;5972;42.134;24.718;2022-08-19T01:29:11;99027.13;;;26.05;83.38
11830;BME280;5972;42.134;24.718;2022-08-19T01:31:39;99033.78;;;26.08;83.37
11830;BME280;5972;42.134;24.718;2022-08-19T01:34:06;99040.38;;;26.11;83.46
11830;BME280;5972;42.134;24.718;2022-08-19T01:36:37;99038.38;;;26.02;83.46
11830;BME280;5972;42.134;24.718;2022-08-19T01:39:07;99032.50;;;25.91;84.73
11830;BME280;5972;42.134;24.718;2022-08-19T01:41:35;99048.88;;;26.07;83.14
11830;BME280;5972;42.134;24.718;2022-08-19T01:44:03;99054.25;;;26.20;81.55
11830;BME280;5972;42.134;24.718;2022-08-19T01:46:31;99055.19;;;26.07;83.01
11830;BME280;5972;42.134;24.718;2022-08-19T01:48:58;99062.50;;;25.83;85.90
11830;BME280;5972;42.134;24.718;2022-08-19T01:51:25;99059.13;;;25.79;87.55
11830;BME280;5972;42.134;24.718;2022-08-19T01:53:53;99073.75;;;25.80;88.22
11830;BME280;5972;42.134;24.718;2022-08-19T01:56:20;99074.50;;;25.80;88.18
11830;BME280;5972;42.134;24.718;2022-08-19T01:58:51;99079.25;;;25.71;89.48
11830;BME280;5972;42.134;24.718;2022-08-19T02:01:19;99075.84;;;25.66;89.63
11830;BME280;5972;42.134;24.718;2022-08-19T02:03:46;99086.34;;;25.72;88.82
11830;BME280;5972;42.134;24.718;2022-08-19T02:06:13;99087.63;;;25.80;88.83
11830;BME280;5972;42.134;24.718;2022-08-19T02:08:42;99085.00;;;25.85;89.38
11830;BME280;5972;42.134;24.718;2022-08-19T02:11:18;99078.22;;;25.86;90.76
11830;BME280;5972;42.134;24.718;2022-08-19T02:13:46;99086.25;;;25.93;89.81
11830;BME280;5972;42.134;24.718;2022-08-19T02:16:14;99083.03;;;25.95;90.41
11830;BME280;5972;42.134;24.718;2022-08-19T02:18:41;99093.50;;;25.91;90.99
11830;BME280;5972;42.134;24.718;2022-08-19T02:21:08;99102.25;;;25.89;91.67
11830;BME280;5972;42.134;24.718;2022-08-19T02:23:34;99105.94;;;25.86;92.69
11830;BME280;5972;42.134;24.718;2022-08-19T02:26:01;99101.00;;;25.81;93.55
11830;BME280;5972;42.134;24.718;2022-08-19T02:28:28;99102.53;;;25.73;94.20
11830;BME280;5972;42.134;24.718;2022-08-19T02:30:55;99102.22;;;25.80;94.61
11830;BME280;5972;42.134;24.718;2022-08-19T02:33:23;99098.03;;;25.66;95.73
11830;BME280;5972;42.134;24.718;2022-08-19T02:35:50;99115.72;;;25.69;95.86
11830;BME280;5972;42.134;24.718;2022-08-19T02:38:17;99110.06;;;25.73;95.94
11830;BME280;5972;42.134;24.718;2022-08-19T02:40:54;99114.81;;;25.72;96.00
11830;BME280;5972;42.134;24.718;2022-08-19T02:43:21;99122.50;;;25.68;95.31
11830;BME280;5972;42.134;24.718;2022-08-19T02:45:49;99114.31;;;25.64;95.79
11830;BME280;5972;42.134;24.718;2022-08-19T02:48:17;99117.19;;;25.52;96.68
11830;BME280;5972;42.134;24.718;2022-08-19T02:50:46;99123.44;;;25.43;96.94
11830;BME280;5972;42.134;24.718;2022-08-19T02:53:13;99127.91;;;25.41;96.96
11830;BME280;5972;42.134;24.718;2022-08-19T02:55:44;99118.63;;;25.35;97.46
11830;BME280;5972;42.134;24.718;2022-08-19T02:58:12;99127.81;;;25.32;97.13
11830;BME280;5972;42.134;24.718;2022-08-19T03:00:43;99129.19;;;25.27;97.85
11830;BME280;5972;42.134;24.718;2022-08-19T03:03:10;99136.09;;;25.22;98.26
11830;BME280;5972;42.134;24.718;2022-08-19T03:05:37;99134.88;;;25.23;98.65
11830;BME280;5972;42.134;24.718;2022-08-19T03:08:06;99136.19;;;25.19;97.67
11830;BME280;5972;42.134;24.718;2022-08-19T03:10:33;99132.75;;;25.06;99.09
11830;BME280;5972;42.134;24.718;2022-08-19T03:13:00;99127.03;;;25.00;99.36
11830;BME280;5972;42.134;24.718;2022-08-19T03:15:26;99132.84;;;25.02;100.00
11830;BME280;5972;42.134;24.718;2022-08-19T03:17:53;99140.97;;;24.97;100.00
11830;BME280;5972;42.134;24.718;2022-08-19T03:20:20;99138.34;;;24.93;100.00
11830;BME280;5972;42.134;24.718;2022-08-19T03:22:47;99138.97;;;24.97;100.00
11830;BME280;5972;42.134;24.718;2022-08-19T03:25:15;99139.31;;;24.99;100.00
11830;BME280;5972;42.134;24.718;2022-08-19T03:27:42;99149.03;;;25.04;100.00
11830;BME280;5972;42.134;24.718;2022-08-19T03:30:10;99147.47;;;25.03;100.00
11830;BME280;5972;42.134;24.718;2022-08-19T03:32:37;99151.16;;;25.00;100.00
11830;BME280;5972;42.134;24.718;2022-08-19T03:35:04;99158.56;;;25.03;100.00
11830;BME280;5972;42.134;24.718;2022-08-19T03:37:32;99161.31;;;25.03;100.00
11830;BME280;5972;42.134;24.718;2022-08-19T03:39:58;99155.66;;;25.06;100.00
11830;BME280;5972;42.134;24.718;2022-08-19T03:42:27;99153.41;;;25.14;100.00
11830;BME280;5972;42.134;24.718;2022-08-19T03:44:54;99151.28;;;25.18;100.00
11830;BME280;5972;42.134;24.718;2022-08-19T03:47:20;99151.41;;;25.14;100.00
11830;BME280;5972;42.134;24.718;2022-08-19T03:49:47;99151.78;;;25.04;100.00
11830;BME280;5972;42.134;24.718;2022-08-19T03:52:14;99162.66;;;24.98;100.00
11830;BME280;5972;42.134;24.718;2022-08-19T03:54:41;99167.13;;;24.96;100.00
11830;BME280;5972;42.134;24.718;2022-08-19T03:57:08;99169.38;;;25.10;100.00
11830;BME280;5972;42.134;24.718;2022-08-19T03:59:38;99165.25;;;25.14;100.00
11830;BME280;5972;42.134;24.718;2022-08-19T04:02:08;99163.44;;;25.20;100.00
11830;BME280;5972;42.134;24.718;2022-08-19T04:04:36;99149.84;;;25.13;100.00
11830;BME280;5972;42.134;24.718;2022-08-19T04:07:04;99162.75;;;25.29;100.00
11830;BME280;5972;42.134;24.718;2022-08-19T04:09:31;99161.31;;;25.46;98.47
11830;BME280;5972;42.134;24.718;2022-08-19T04:11:59;99162.66;;;25.63;96.06
11830;BME280;5972;42.134;24.718;2022-08-19T04:14:29;99169.16;;;25.70;94.76
11830;BME280;5972;42.134;24.718;2022-08-19T04:16:59;99174.28;;;25.80;93.04
11830;BME280;5972;42.134;24.718;2022-08-19T04:19:26;99170.53;;;25.96;89.81
11830;BME280;5972;42.134;24.718;2022-08-19T04:21:55;99163.78;;;26.15;86.98
11830;BME280;5972;42.134;24.718;2022-08-19T04:24:22;99159.88;;;26.34;86.02
11830;BME280;5972;42.134;24.718;2022-08-19T04:26:49;99162.03;;;26.39;86.14
11830;BME280;5972;42.134;24.718;2022-08-19T04:29:19;99179.03;;;26.78;84.90
11830;BME280;5972;42.134;24.718;2022-08-19T04:31:48;99174.91;;;27.10;83.89
11830;BME280;5972;42.134;24.718;2022-08-19T04:34:19;99172.88;;;27.28;87.78
11830;BME280;5972;42.134;24.718;2022-08-19T04:36:48;99158.06;;;27.31;91.44
11830;BME280;5972;42.134;24.718;2022-08-19T04:39:19;99186.44;;;27.63;88.51
11830;BME280;5972;42.134;24.718;2022-08-19T04:41:46;99184.84;;;27.80;86.75
11830;BME280;5972;42.134;24.718;2022-08-19T04:44:31;99172.38;;;27.99;85.74
11830;BME280;5972;42.134;24.718;2022-08-19T04:46:58;99187.31;;;28.11;79.98
11830;BME280;5972;42.134;24.718;2022-08-19T04:49:27;99190.38;;;28.22;77.41
11830;BME280;5972;42.134;24.718;2022-08-19T04:51:55;99186.84;;;28.22;76.58
11830;BME280;5972;42.134;24.718;2022-08-19T04:54:24;99189.09;;;28.32;74.74
11830;BME280;5972;42.134;24.718;2022-08-19T04:56:52;99195.69;;;28.44;74.97
11830;BME280;5972;42.134;24.718;2022-08-19T04:59:20;99192.78;;;28.62;75.07
11830;BME280;5972;42.134;24.718;2022-08-19T05:01:48;99199.88;;;28.87;73.81
11830;BME280;5972;42.134;24.718;2022-08-19T05:04:16;99191.03;;;29.27;69.72
11830;BME280;5972;42.134;24.718;2022-08-19T05:06:46;99195.88;;;29.70;66.78
11830;BME280;5972;42.134;24.718;2022-08-19T05:09:14;99188.66;;;30.08;59.67
11830;BME280;5972;42.134;24.718;2022-08-19T05:11:42;99187.84;;;30.57;55.54
11830;BME280;5972;42.134;24.718;2022-08-19T05:14:09;99186.69;;;31.30;53.16
11830;BME280;5972;42.134;24.718;2022-08-19T05:16:38;99196.75;;;32.36;48.51
11830;BME280;5972;42.134;24.718;2022-08-19T05:19:05;99201.56;;;33.76;44.44
11830;BME280;5972;42.134;24.718;2022-08-19T05:21:50;99200.41;;;35.26;40.13
11830;BME280;5972;42.134;24.718;2022-08-19T05:24:36;99206.19;;;36.59;37.59
11830;BME280;5972;42.134;24.718;2022-08-19T05:27:05;99198.53;;;37.72;35.26
11830;BME280;5972;42.134;24.718;2022-08-19T05:29:32;99207.19;;;38.51;33.76
11830;BME280;5972;42.134;24.718;2022-08-19T05:32:01;99207.13;;;39.03;32.88
11830;BME280;5972;42.134;24.718;2022-08-19T05:34:30;99206.97;;;39.56;31.14
11830;BME280;5972;42.134;24.718;2022-08-19T05:37:02;99212.06;;;40.20;28.11
11830;BME280;5972;42.134;24.718;2022-08-19T05:39:31;99210.66;;;40.62;27.78
11830;BME280;5972;42.134;24.718;2022-08-19T05:42:01;99212.88;;;40.85;27.60
11830;BME280;5972;42.134;24.718;2022-08-19T05:44:30;99217.19;;;41.22;27.05
11830;BME280;5972;42.134;24.718;2022-08-19T05:46:57;99216.00;;;41.61;26.64
11830;BME280;5972;42.134;24.718;2022-08-19T05:49:25;99203.50;;;42.40;25.93
11830;BME280;5972;42.134;24.718;2022-08-19T05:51:53;99193.47;;;42.23;25.59
11830;BME280;5972;42.134;24.718;2022-08-19T05:54:23;99210.81;;;42.65;25.00
11830;BME280;5972;42.134;24.718;2022-08-19T05:56:51;99217.00;;;42.94;24.63
11830;BME280;5972;42.134;24.718;2022-08-19T05:59:20;99217.25;;;43.29;24.29
11830;BME280;5972;42.134;24.718;2022-08-19T06:01:48;99212.00;;;43.18;24.55
11830;BME280;5972;42.134;24.718;2022-08-19T06:04:17;99224.06;;;43.66;24.21
11830;BME280;5972;42.134;24.718;2022-08-19T06:06:45;99215.38;;;43.81;23.76
11830;BME280;5972;42.134;24.718;2022-08-19T06:09:12;99218.34;;;44.15;23.01
11830;BME280;5972;42.134;24.718;2022-08-19T06:11:43;99231.84;;;44.15;22.78
11830;BME280;5972;42.134;24.718;2022-08-19T06:14:12;99228.56;;;44.78;21.84
11830;BME280;5972;42.134;24.718;2022-08-19T06:16:40;99225.53;;;44.76;22.19
11830;BME280;5972;42.134;24.718;2022-08-19T06:19:11;99233.09;;;44.63;21.67
11830;BME280;5972;42.134;24.718;2022-08-19T06:21:40;99227.72;;;45.02;21.20
11830;BME280;5972;42.134;24.718;2022-08-19T06:24:10;99210.38;;;44.73;21.17
11830;BME280;5972;42.134;24.718;2022-08-19T06:26:42;99217.41;;;45.06;21.45
11830;BME280;5972;42.134;24.718;2022-08-19T06:29:11;99223.81;;;45.24;21.60
11830;BME280;5972;42.134;24.718;2022-08-19T06:31:41;99230.16;;;44.88;21.71
11830;BME280;5972;42.134;24.718;2022-08-19T06:34:09;99222.84;;;43.44;23.34
11830;BME280;5972;42.134;24.718;2022-08-19T06:36:38;99226.63;;;41.68;25.09
11830;BME280;5972;42.134;24.718;2022-08-19T06:39:07;99237.38;;;40.18;26.56
11830;BME280;5972;42.134;24.718;2022-08-19T06:41:35;99235.97;;;39.02;28.35
11830;BME280;5972;42.134;24.718;2022-08-19T06:44:05;99231.78;;;38.24;29.81
11830;BME280;5972;42.134;24.718;2022-08-19T06:46:32;99226.19;;;37.60;30.71
11830;BME280;5972;42.134;24.718;2022-08-19T06:48:59;99231.63;;;37.21;31.44
11830;BME280;5972;42.134;24.718;2022-08-19T06:51:26;99233.34;;;37.05;32.33
11830;BME280;5972;42.134;24.718;2022-08-19T06:53:54;99231.53;;;36.64;32.80
11830;BME280;5972;42.134;24.718;2022-08-19T06:56:25;99223.63;;;36.57;32.35
11830;BME280;5972;42.134;24.718;2022-08-19T06:58:56;99226.06;;;36.48;32.96
11830;BME280;5972;42.134;24.718;2022-08-19T07:01:24;99225.72;;;36.33;33.51
11830;BME280;5972;42.134;24.718;2022-08-19T07:03:51;99209.63;;;35.98;34.19
11830;BME280;5972;42.134;24.718;2022-08-19T07:06:18;99209.16;;;35.94;34.03
11830;BME280;5972;42.134;24.718;2022-08-19T07:08:46;99205.31;;;35.91;34.11
11830;BME280;5972;42.134;24.718;2022-08-19T07:11:15;99204.56;;;35.91;33.70
11830;BME280;5972;42.134;24.718;2022-08-19T07:13:43;99208.38;;;35.93;33.63
11830;BME280;5972;42.134;24.718;2022-08-19T07:16:13;99206.69;;;36.09;33.39
11830;BME280;5972;42.134;24.718;2022-08-19T07:18:42;99204.22;;;36.00;33.79
11830;BME280;5972;42.134;24.718;2022-08-19T07:21:11;99201.88;;;36.04;33.71
11830;BME280;5972;42.134;24.718;2022-08-19T07:23:39;99198.31;;;36.03;33.12
11830;BME280;5972;42.134;24.718;2022-08-19T07:26:07;99195.38;;;36.14;32.16
11830;BME280;5972;42.134;24.718;2022-08-19T07:28:34;99194.28;;;36.23;32.21
11830;BME280;5972;42.134;24.718;2022-08-19T07:31:05;99207.91;;;36.19;31.91
11830;BME280;5972;42.134;24.718;2022-08-19T07:33:32;99196.06;;;36.26;32.23
11830;BME280;5972;42.134;24.718;2022-08-19T07:36:04;99195.53;;;36.28;32.19
11830;BME280;5972;42.134;24.718;2022-08-19T07:38:31;99205.50;;;36.29;32.45
11830;BME280;5972;42.134;24.718;2022-08-19T07:40:58;99196.75;;;36.32;32.30
11830;BME280;5972;42.134;24.718;2022-08-19T07:43:26;99182.69;;;36.32;32.22
11830;BME280;5972;42.134;24.718;2022-08-19T07:45:53;99194.16;;;36.58;32.12
11830;BME280;5972;42.134;24.718;2022-08-19T07:48:22;99197.09;;;36.72;31.91
11830;BME280;5972;42.134;24.718;2022-08-19T07:50:51;99194.22;;;36.77;31.86
11830;BME280;5972;42.134;24.718;2022-08-19T07:53:20;99193.44;;;36.95;31.67
11830;BME280;5972;42.134;24.718;2022-08-19T07:55:47;99192.28;;;37.10;30.45
11830;BME280;5972;42.134;24.718;2022-08-19T07:58:23;99186.59;;;36.91;31.41
11830;BME280;5972;42.134;24.718;2022-08-19T08:00:50;99186.47;;;37.21;30.72
11830;BME280;5972;42.134;24.718;2022-08-19T08:03:20;99189.81;;;37.38;30.56
11830;BME280;5972;42.134;24.718;2022-08-19T08:06:07;99184.69;;;37.55;29.89
11830;BME280;5972;42.134;24.718;2022-08-19T08:08:52;99194.28;;;37.65;29.78
11830;BME280;5972;42.134;24.718;2022-08-19T08:11:38;99198.41;;;37.64;29.61
11830;BME280;5972;42.134;24.718;2022-08-19T08:14:05;99187.69;;;37.76;29.92
11830;BME280;5972;42.134;24.718;2022-08-19T08:16:34;99195.53;;;37.96;29.82
11830;BME280;5972;42.134;24.718;2022-08-19T08:19:03;99185.28;;;38.12;29.50
11830;BME280;5972;42.134;24.718;2022-08-19T08:21:30;99184.84;;;38.21;29.45
11830;BME280;5972;42.134;24.718;2022-08-19T08:23:59;99183.44;;;38.41;29.58
11830;BME280;5972;42.134;24.718;2022-08-19T08:26:26;99182.47;;;38.51;29.70
11830;BME280;5972;42.134;24.718;2022-08-19T08:28:53;99184.88;;;38.60;29.26
11830;BME280;5972;42.134;24.718;2022-08-19T08:31:20;99185.47;;;38.80;29.35
11830;BME280;5972;42.134;24.718;2022-08-19T08:33:47;99161.97;;;38.85;29.02
11830;BME280;5972;42.134;24.718;2022-08-19T08:36:14;99178.19;;;38.97;29.16
11830;BME280;5972;42.134;24.718;2022-08-19T08:38:42;99182.59;;;39.19;28.28
11830;BME280;5972;42.134;24.718;2022-08-19T08:41:18;99175.22;;;39.16;27.76
11830;BME280;5972;42.134;24.718;2022-08-19T08:43:50;99174.31;;;39.34;27.80
11830;BME280;5972;42.134;24.718;2022-08-19T08:46:22;99160.06;;;39.14;28.24
11830;BME280;5972;42.134;24.718;2022-08-19T08:48:54;99168.75;;;39.29;28.34
11830;BME280;5972;42.134;24.718;2022-08-19T08:51:27;99160.75;;;39.40;27.48
11830;BME280;5972;42.134;24.718;2022-08-19T08:53:56;99165.25;;;39.36;28.16
11830;BME280;5972;42.134;24.718;2022-08-19T08:56:25;99157.28;;;39.76;27.48
11830;BME280;5972;42.134;24.718;2022-08-19T08:59:05;99158.31;;;39.78;26.95
11830;BME280;5972;42.134;24.718;2022-08-19T09:01:35;99144.72;;;40.05;26.62
11830;BME280;5972;42.134;24.718;2022-08-19T09:04:04;99157.75;;;40.08;26.22
11830;BME280;5972;42.134;24.718;2022-08-19T09:06:37;99153.97;;;40.34;25.89
11830;BME280;5972;42.134;24.718;2022-08-19T09:09:13;99148.63;;;40.23;25.73
11830;BME280;5972;42.134;24.718;2022-08-19T09:11:54;99146.41;;;40.37;25.52
11830;BME280;5972;42.134;24.718;2022-08-19T09:14:35;99136.66;;;40.53;24.98
11830;BME280;5972;42.134;24.718;2022-08-19T09:17:07;99140.16;;;40.30;25.53
11830;BME280;5972;42.134;24.718;2022-08-19T09:19:34;99132.91;;;40.50;24.83
11830;BME280;5972;42.134;24.718;2022-08-19T09:22:01;99136.19;;;40.69;24.11
11830;BME280;5972;42.134;24.718;2022-08-19T09:24:28;99131.00;;;40.89;24.15
11830;BME280;5972;42.134;24.718;2022-08-19T09:26:56;99137.16;;;40.72;24.79
11830;BME280;5972;42.134;24.718;2022-08-19T09:29:23;99121.88;;;40.83;24.46
11830;BME280;5972;42.134;24.718;2022-08-19T09:31:50;99127.25;;;41.01;24.67
11830;BME280;5972;42.134;24.718;2022-08-19T09:34:17;99126.91;;;41.20;24.19
11830;BME280;5972;42.134;24.718;2022-08-19T09:36:45;99119.88;;;40.55;25.11
11830;BME280;5972;42.134;24.718;2022-08-19T09:39:12;99120.41;;;40.53;24.81
11830;BME280;5972;42.134;24.718;2022-08-19T09:41:38;99126.03;;;40.82;25.23
11830;BME280;5972;42.134;24.718;2022-08-19T09:44:07;99121.25;;;40.69;24.41
11830;BME280;5972;42.134;24.718;2022-08-19T09:46:33;99124.50;;;40.81;24.87
11830;BME280;5972;42.134;24.718;2022-08-19T09:49:01;99113.38;;;40.83;24.22
11830;BME280;5972;42.134;24.718;2022-08-19T09:51:30;99110.78;;;41.07;23.84
11830;BME280;5972;42.134;24.718;2022-08-19T09:53:59;99110.63;;;41.21;23.76
11830;BME280;5972;42.134;24.718;2022-08-19T09:56:27;99108.91;;;41.10;24.15
11830;BME280;5972;42.134;24.718;2022-08-19T09:58:54;99099.19;;;40.83;24.20
11830;BME280;5972;42.134;24.718;2022-08-19T10:01:24;99102.47;;;40.58;24.54
11830;BME280;5972;42.134;24.718;2022-08-19T10:03:56;99095.34;;;40.65;24.31
11830;BME280;5972;42.134;24.718;2022-08-19T10:06:25;99096.31;;;40.75;23.78
11830;BME280;5972;42.134;24.718;2022-08-19T10:08:54;99086.75;;;41.01;23.90
11830;BME280;5972;42.134;24.718;2022-08-19T10:11:21;99087.53;;;41.24;23.90
11830;BME280;5972;42.134;24.718;2022-08-19T10:13:48;99090.16;;;40.99;24.32
11830;BME280;5972;42.134;24.718;2022-08-19T10:16:18;99084.50;;;41.30;23.55
11830;BME280;5972;42.134;24.718;2022-08-19T10:18:48;99075.25;;;41.29;23.75
11830;BME280;5972;42.134;24.718;2022-08-19T10:21:17;99076.03;;;41.60;23.33
11830;BME280;5972;42.134;24.718;2022-08-19T10:23:46;99070.72;;;41.95;23.09
11830;BME280;5972;42.134;24.718;2022-08-19T10:26:17;99064.56;;;42.21;22.40
11830;BME280;5972;42.134;24.718;2022-08-19T10:28:45;99073.44;;;42.40;22.29
11830;BME280;5972;42.134;24.718;2022-08-19T10:31:16;99073.38;;;42.48;22.29
11830;BME280;5972;42.134;24.718;2022-08-19T10:33:45;99066.28;;;42.16;22.42
11830;BME280;5972;42.134;24.718;2022-08-19T10:36:17;99058.00;;;41.96;22.83
11830;BME280;5972;42.134;24.718;2022-08-19T10:38:45;99064.38;;;42.19;22.13
11830;BME280;5972;42.134;24.718;2022-08-19T10:41:14;99058.09;;;42.28;21.92
11830;BME280;5972;42.134;24.718;2022-08-19T10:43:42;99057.06;;;41.93;22.21
11830;BME280;5972;42.134;24.718;2022-08-19T10:46:12;99051.59;;;41.72;22.92
11830;BME280;5972;42.134;24.718;2022-08-19T10:48:39;99050.63;;;41.85;23.12
11830;BME280;5972;42.134;24.718;2022-08-19T10:51:06;99045.69;;;41.93;22.59
11830;BME280;5972;42.134;24.718;2022-08-19T10:53:52;99048.19;;;41.89;22.72
11830;BME280;5972;42.134;24.718;2022-08-19T10:56:19;99049.28;;;41.94;22.77
11830;BME280;5972;42.134;24.718;2022-08-19T10:59:03;99044.59;;;41.58;23.03
11830;BME280;5972;42.134;24.718;2022-08-19T11:01:31;99041.91;;;41.75;23.02
11830;BME280;5972;42.134;24.718;2022-08-19T11:03:59;99044.94;;;41.77;22.84
11830;BME280;5972;42.134;24.718;2022-08-19T11:06:26;99039.69;;;41.51;23.07
11830;BME280;5972;42.134;24.718;2022-08-19T11:08:56;99033.63;;;41.47;22.65
11830;BME280;5972;42.134;24.718;2022-08-19T11:11:23;99034.78;;;41.52;22.34
11830;BME280;5972;42.134;24.718;2022-08-19T11:13:50;99034.94;;;41.54;22.03
11830;BME280;5972;42.134;24.718;2022-08-19T11:16:20;99034.00;;;41.59;22.22
11830;BME280;5972;42.134;24.718;2022-08-19T11:18:48;99022.81;;;41.45;22.09
11830;BME280;5972;42.134;24.718;2022-08-19T11:21:18;99028.13;;;41.34;22.88
11830;BME280;5972;42.134;24.718;2022-08-19T11:23:47;99026.41;;;41.31;22.60
11830;BME280;5972;42.134;24.718;2022-08-19T11:26:16;99025.09;;;41.09;22.54
11830;BME280;5972;42.134;24.718;2022-08-19T11:28:43;99026.53;;;40.80;23.09
11830;BME280;5972;42.134;24.718;2022-08-19T11:31:12;99024.97;;;40.12;23.15
11830;BME280;5972;42.134;24.718;2022-08-19T11:33:39;99012.34;;;39.57;23.83
11830;BME280;5972;42.134;24.718;2022-08-19T11:36:06;99017.13;;;39.41;22.90
11830;BME280;5972;42.134;24.718;2022-08-19T11:38:34;98994.28;;;39.39;22.47
11830;BME280;5972;42.134;24.718;2022-08-19T11:41:06;99006.25;;;39.53;22.53
11830;BME280;5972;42.134;24.718;2022-08-19T11:43:35;99010.31;;;39.65;22.38
11830;BME280;5972;42.134;24.718;2022-08-19T11:46:04;99009.22;;;39.68;23.29
11830;BME280;5972;42.134;24.718;2022-08-19T11:48:32;99002.22;;;39.69;22.93
11830;BME280;5972;42.134;24.718;2022-08-19T11:50:59;99007.72;;;39.74;22.82
11830;BME280;5972;42.134;24.718;2022-08-19T11:53:26;99000.56;;;39.45;22.48
11830;BME280;5972;42.134;24.718;2022-08-19T11:55:53;98988.47;;;39.44;22.73
11830;BME280;5972;42.134;24.718;2022-08-19T11:58:22;98991.28;;;38.95;23.53
11830;BME280;5972;42.134;24.718;2022-08-19T12:00:51;98982.56;;;38.93;23.82
11830;BME280;5972;42.134;24.718;2022-08-19T12:03:18;98987.31;;;38.44;23.93
11830;BME280;5972;42.134;24.718;2022-08-19T12:05:46;98986.66;;;38.51;23.49
11830;BME280;5972;42.134;24.718;2022-08-19T12:08:13;98980.91;;;38.43;24.03
11830;BME280;5972;42.134;24.718;2022-08-19T12:10:41;98973.13;;;38.57;24.17
11830;BME280;5972;42.134;24.718;2022-08-19T12:13:08;98952.53;;;38.49;23.81
11830;BME280;5972;42.134;24.718;2022-08-19T12:15:37;98972.69;;;38.66;23.83
11830;BME280;5972;42.134;24.718;2022-08-19T12:18:07;98971.56;;;38.69;23.65
11830;BME280;5972;42.134;24.718;2022-08-19T12:20:35;98967.69;;;38.80;23.79
11830;BME280;5972;42.134;24.718;2022-08-19T12:23:02;98970.34;;;38.78;24.04
11830;BME280;5972;42.134;24.718;2022-08-19T12:25:29;98956.69;;;38.89;23.82
11830;BME280;5972;42.134;24.718;2022-08-19T12:27:57;98957.03;;;39.06;24.16
11830;BME280;5972;42.134;24.718;2022-08-19T12:30:24;98955.09;;;39.01;24.01
11830;BME280;5972;42.134;24.718;2022-08-19T12:32:51;98957.44;;;39.11;24.38
11830;BME280;5972;42.134;24.718;2022-08-19T12:35:20;98955.34;;;39.32;24.26
11830;BME280;5972;42.134;24.718;2022-08-19T12:37:47;98947.97;;;39.57;22.86
11830;BME280;5972;42.134;24.718;2022-08-19T12:40:16;98953.78;;;39.80;23.27
11830;BME280;5972;42.134;24.718;2022-08-19T12:42:44;98953.00;;;39.79;23.41
11830;BME280;5972;42.134;24.718;2022-08-19T12:45:12;98953.72;;;39.72;23.21
11830;BME280;5972;42.134;24.718;2022-08-19T12:47:40;98949.28;;;39.92;22.57
11830;BME280;5972;42.134;24.718;2022-08-19T12:50:07;98922.84;;;39.89;22.90
11830;BME280;5972;42.134;24.718;2022-08-19T12:52:36;98941.44;;;40.06;22.53
11830;BME280;5972;42.134;24.718;2022-08-19T12:55:05;98946.84;;;39.96;22.62
11830;BME280;5972;42.134;24.718;2022-08-19T12:57:33;98940.13;;;40.07;22.29
11830;BME280;5972;42.134;24.718;2022-08-19T13:00:04;98940.13;;;40.07;22.41
11830;BME280;5972;42.134;24.718;2022-08-19T13:02:35;98943.84;;;40.02;22.08
11830;BME280;5972;42.134;24.718;2022-08-19T13:05:03;98931.06;;;39.72;22.28
11830;BME280;5972;42.134;24.718;2022-08-19T13:07:31;98932.47;;;39.51;22.40